createdAt,value
2023-05-10T00:01:45.086Z,17.87
2023-05-10T00:04:11.818Z,17.83
2023-05-10T00:06:38.499Z,17.81
2023-05-10T00:09:05.448Z,17.79
2023-05-10T00:11:32.281Z,17.76
2023-05-10T00:13:59.130Z,17.76
2023-05-10T00:16:26.035Z,17.78
2023-05-10T00:18:52.861Z,17.77
2023-05-10T00:21:19.659Z,17.74
2023-05-10T00:23:46.351Z,17.75
2023-05-10T00:26:13.208Z,17.72
2023-05-10T00:28:43.860Z,17.73
2023-05-10T00:31:11.008Z,17.71
2023-05-10T00:33:37.670Z,17.70
2023-05-10T00:36:04.593Z,17.69
2023-05-10T00:38:31.234Z,17.69
2023-05-10T00:40:57.892Z,17.68
2023-05-10T00:43:29.750Z,17.66
2023-05-10T00:45:56.682Z,17.64
2023-05-10T00:48:23.548Z,17.64
2023-05-10T00:50:50.527Z,17.64
2023-05-10T00:53:17.896Z,17.62
2023-05-10T00:55:44.775Z,17.57
2023-05-10T00:58:11.631Z,17.58
2023-05-10T01:00:39.525Z,17.59
2023-05-10T01:03:06.661Z,17.59
2023-05-10T01:05:33.524Z,17.58
2023-05-10T01:08:00.365Z,17.55
2023-05-10T01:10:27.058Z,17.48
2023-05-10T01:12:54.018Z,17.49
2023-05-10T01:15:21.692Z,17.50
2023-05-10T01:17:49.533Z,17.48
2023-05-10T01:20:16.953Z,17.43
2023-05-10T01:23:16.126Z,17.32
2023-05-10T01:26:21.722Z,17.28
2023-05-10T01:29:20.441Z,17.31
2023-05-10T01:32:09.050Z,17.33
2023-05-10T01:34:37.656Z,17.37
2023-05-10T01:37:10.587Z,17.33
2023-05-10T01:39:55.805Z,17.14
2023-05-10T01:42:28.470Z,17.28
2023-05-10T01:45:06.823Z,17.28
2023-05-10T01:47:52.128Z,17.28
2023-05-10T01:50:26.340Z,17.36
2023-05-10T01:52:57.815Z,17.39
2023-05-10T01:55:28.214Z,17.36
2023-05-10T01:58:03.824Z,17.38
2023-05-10T02:00:34.577Z,17.41
2023-05-10T02:03:07.952Z,17.34
2023-05-10T02:05:35.369Z,17.38
2023-05-10T02:08:02.786Z,17.39
2023-05-10T02:10:30.110Z,17.35
2023-05-10T02:12:59.912Z,17.32
2023-05-10T02:15:27.718Z,17.35
2023-05-10T02:17:56.588Z,17.34
2023-05-10T02:20:24.485Z,17.32
2023-05-10T02:22:52.709Z,17.32
2023-05-10T02:25:20.943Z,17.31
2023-05-10T02:27:49.121Z,17.31
2023-05-10T02:30:16.241Z,17.28
2023-05-10T02:32:43.949Z,17.27
2023-05-10T02:35:11.035Z,17.27
2023-05-10T02:37:41.030Z,17.24
2023-05-10T02:40:08.457Z,17.24
2023-05-10T02:42:37.434Z,17.24
2023-05-10T02:45:09.286Z,17.24
2023-05-10T02:47:36.420Z,17.23
2023-05-10T02:50:03.451Z,17.20
2023-05-10T02:52:41.192Z,17.15
2023-05-10T02:55:08.715Z,17.19
2023-05-10T02:57:36.582Z,17.21
2023-05-10T03:00:04.351Z,17.19
2023-05-10T03:02:31.971Z,17.16
2023-05-10T03:04:59.513Z,17.17
2023-05-10T03:07:26.954Z,17.16
2023-05-10T03:09:53.886Z,17.12
2023-05-10T03:12:20.718Z,17.11
2023-05-10T03:14:57.857Z,17.08
2023-05-10T03:17:42.648Z,17.12
2023-05-10T03:20:15.869Z,17.09
2023-05-10T03:22:47.114Z,17.10
2023-05-10T03:25:16.723Z,17.08
2023-05-10T03:27:44.937Z,17.08
2023-05-10T03:30:13.104Z,17.05
2023-05-10T03:32:39.892Z,17.04
2023-05-10T03:35:11.224Z,17.07
2023-05-10T03:37:38.203Z,17.05
2023-05-10T03:40:07.989Z,17.01
2023-05-10T03:42:37.093Z,17.02
2023-05-10T03:45:04.133Z,17.02
2023-05-10T03:47:31.071Z,16.99
2023-05-10T03:49:58.954Z,17.00
2023-05-10T03:52:26.532Z,16.96
2023-05-10T03:54:53.502Z,16.96
2023-05-10T03:57:20.336Z,16.97
2023-05-10T03:59:47.117Z,16.93
2023-05-10T04:02:14.030Z,16.93
2023-05-10T04:04:41.032Z,16.92
2023-05-10T04:07:07.890Z,16.90
2023-05-10T04:09:34.980Z,16.90
2023-05-10T04:12:03.274Z,16.85
2023-05-10T04:14:30.174Z,16.87
2023-05-10T04:16:57.003Z,16.88
2023-05-10T04:19:24.238Z,16.90
2023-05-10T04:21:51.030Z,16.88
2023-05-10T04:24:17.754Z,16.91
2023-05-10T04:26:44.577Z,16.89
2023-05-10T04:29:11.231Z,16.93
2023-05-10T04:31:38.161Z,16.93
2023-05-10T04:34:04.937Z,16.95
2023-05-10T04:36:33.366Z,16.96
2023-05-10T04:39:00.085Z,16.98
2023-05-10T04:41:26.851Z,16.92
2023-05-10T04:43:53.567Z,16.97
2023-05-10T04:46:20.359Z,16.94
2023-05-10T04:48:47.049Z,16.96
2023-05-10T04:51:14.051Z,16.93
2023-05-10T04:53:41.873Z,16.93
2023-05-10T04:56:09.817Z,16.96
2023-05-10T04:58:36.549Z,16.97
2023-05-10T05:01:10.334Z,16.91
2023-05-10T05:03:37.777Z,16.96
2023-05-10T05:06:04.640Z,16.93
2023-05-10T05:08:31.472Z,16.95
2023-05-10T05:10:58.301Z,16.96
2023-05-10T05:13:24.975Z,16.95
2023-05-10T05:15:51.806Z,16.96
2023-05-10T05:18:18.622Z,16.94
2023-05-10T05:20:45.451Z,16.96
2023-05-10T05:23:12.150Z,16.97
2023-05-10T05:25:38.863Z,16.98
2023-05-10T05:28:05.564Z,16.97
2023-05-10T05:30:32.551Z,16.99
2023-05-10T05:32:59.330Z,16.96
2023-05-10T05:35:26.021Z,17.01
2023-05-10T05:37:52.736Z,17.01
2023-05-10T05:40:19.401Z,16.99
2023-05-10T05:42:46.073Z,17.02
2023-05-10T05:45:14.383Z,17.03
2023-05-10T05:47:41.464Z,17.05
2023-05-10T05:50:08.392Z,17.06
2023-05-10T05:52:35.217Z,17.07
2023-05-10T05:55:02.097Z,17.11
2023-05-10T05:57:29.002Z,17.13
2023-05-10T05:59:55.673Z,17.16
2023-05-10T06:02:22.516Z,17.17
2023-05-10T06:04:49.246Z,17.23
2023-05-10T06:07:15.903Z,17.26
2023-05-10T06:09:42.634Z,17.27
2023-05-10T06:12:09.428Z,17.28
2023-05-10T06:14:36.184Z,17.30
2023-05-10T06:17:05.073Z,17.28
2023-05-10T06:19:31.801Z,17.28
2023-05-10T06:21:58.528Z,17.29
2023-05-10T06:24:25.248Z,17.31
2023-05-10T06:26:51.953Z,17.33
2023-05-10T06:29:18.628Z,17.33
2023-05-10T06:31:45.403Z,17.37
2023-05-10T06:34:12.872Z,17.41
2023-05-10T06:36:39.666Z,17.40
2023-05-10T06:39:06.645Z,17.40
2023-05-10T06:41:33.291Z,17.42
2023-05-10T06:43:59.989Z,17.42
2023-05-10T06:46:26.786Z,17.43
2023-05-10T06:48:53.640Z,17.39
2023-05-10T06:51:22.098Z,17.41
2023-05-10T06:53:48.807Z,17.42
2023-05-10T06:56:15.710Z,17.42
2023-05-10T06:58:42.445Z,17.43
2023-05-10T07:01:09.397Z,17.39
2023-05-10T07:03:36.464Z,17.35
2023-05-10T07:06:11.353Z,17.37
2023-05-10T07:08:42.642Z,17.31
2023-05-10T07:11:09.405Z,17.35
2023-05-10T07:13:37.175Z,17.34
2023-05-10T07:16:04.050Z,17.35
2023-05-10T07:18:30.946Z,17.31
2023-05-10T07:20:57.961Z,17.31
2023-05-10T07:23:24.726Z,17.33
2023-05-10T07:25:55.593Z,17.37
2023-05-10T07:28:22.887Z,17.42
2023-05-10T07:30:49.731Z,17.47
2023-05-10T07:33:16.972Z,17.49
2023-05-10T07:35:44.200Z,17.50
2023-05-10T07:38:12.101Z,17.51
2023-05-10T07:40:40.821Z,17.51
2023-05-10T07:43:07.545Z,17.50
2023-05-10T07:45:34.570Z,17.50
2023-05-10T07:48:01.420Z,17.51
2023-05-10T07:50:28.346Z,17.50
2023-05-10T07:52:55.099Z,17.51
2023-05-10T07:55:22.339Z,17.55
2023-05-10T07:57:49.057Z,17.55
2023-05-10T08:00:19.382Z,17.57
2023-05-10T08:02:46.227Z,17.57
2023-05-10T08:05:13.135Z,17.51
2023-05-10T08:07:40.004Z,17.50
2023-05-10T08:10:07.496Z,17.55
2023-05-10T08:12:34.146Z,17.59
2023-05-10T08:15:01.009Z,17.68
2023-05-10T08:17:27.766Z,17.67
2023-05-10T08:19:54.477Z,17.71
2023-05-10T08:22:21.137Z,17.75
2023-05-10T08:24:47.816Z,17.77
2023-05-10T08:27:14.452Z,17.77
2023-05-10T08:29:49.430Z,17.79
2023-05-10T08:32:16.996Z,17.78
2023-05-10T08:34:43.869Z,17.75
2023-05-10T08:37:14.004Z,17.77
2023-05-10T08:39:41.084Z,17.72
2023-05-10T08:42:09.286Z,17.73
2023-05-10T08:44:37.476Z,17.72
2023-05-10T08:47:06.743Z,17.75
2023-05-10T08:49:34.403Z,17.78
2023-05-10T08:52:05.155Z,17.76
2023-05-10T08:54:35.251Z,17.68
2023-05-10T08:57:02.207Z,17.71
2023-05-10T08:59:29.573Z,17.68
2023-05-10T09:01:58.701Z,17.68
2023-05-10T09:04:25.517Z,17.65
2023-05-10T09:06:52.599Z,17.62
2023-05-10T09:09:20.499Z,17.61
2023-05-10T09:11:47.156Z,17.62
2023-05-10T09:14:13.985Z,17.56
2023-05-10T09:16:41.150Z,17.57
2023-05-10T09:19:09.412Z,17.61
2023-05-10T09:21:39.057Z,17.62
2023-05-10T09:24:07.646Z,17.63
2023-05-10T09:26:36.285Z,17.67
2023-05-10T09:29:03.946Z,17.68
2023-05-10T09:31:55.185Z,17.63
2023-05-10T09:34:30.107Z,17.68
2023-05-10T09:37:02.287Z,17.75
2023-05-10T09:39:35.821Z,17.76
2023-05-10T09:42:07.279Z,17.78
2023-05-10T09:44:34.767Z,17.79
2023-05-10T09:47:02.752Z,17.82
2023-05-10T09:49:29.855Z,17.86
2023-05-10T09:52:07.497Z,17.85
2023-05-10T09:54:35.253Z,17.93
2023-05-10T09:57:02.440Z,17.96
2023-05-10T09:59:29.826Z,17.94
2023-05-10T10:01:58.116Z,17.90
2023-05-10T10:04:24.945Z,17.88
2023-05-10T10:07:02.483Z,17.78
2023-05-10T10:09:29.546Z,17.83
2023-05-10T10:11:57.527Z,17.79
2023-05-10T10:14:27.310Z,17.80
2023-05-10T10:17:06.627Z,17.83
2023-05-10T10:19:36.757Z,17.83
2023-05-10T10:22:03.905Z,17.86
2023-05-10T10:24:30.707Z,17.91
2023-05-10T10:27:05.344Z,17.92
2023-05-10T10:29:51.096Z,17.90
2023-05-10T10:32:26.611Z,17.94
2023-05-10T10:34:55.305Z,17.98
2023-05-10T10:37:22.116Z,17.96
2023-05-10T10:39:51.718Z,17.94
2023-05-10T10:42:48.262Z,17.86
2023-05-10T10:45:15.162Z,17.96
2023-05-10T10:47:44.198Z,18.02
2023-05-10T10:50:14.064Z,18.07
2023-05-10T10:52:41.811Z,18.14
2023-05-10T10:55:19.995Z,18.18
2023-05-10T10:57:52.623Z,18.27
2023-05-10T11:00:33.187Z,18.29
2023-05-10T11:03:15.374Z,18.34
2023-05-10T11:05:46.868Z,18.30
2023-05-10T11:08:36.887Z,18.30
2023-05-10T11:11:09.777Z,18.41
2023-05-10T11:13:40.376Z,18.44
2023-05-10T11:16:27.705Z,18.44
2023-05-10T11:19:09.235Z,18.35
2023-05-10T11:21:49.174Z,18.32
2023-05-10T11:24:20.888Z,18.35
2023-05-10T11:26:51.064Z,18.36
2023-05-10T11:29:17.855Z,18.34
2023-05-10T11:31:46.236Z,18.38
2023-05-10T11:34:15.641Z,18.40
2023-05-10T11:36:42.459Z,18.38
2023-05-10T11:39:09.202Z,18.34
2023-05-10T11:41:36.434Z,18.37
2023-05-10T11:44:03.174Z,18.37
2023-05-10T11:46:29.942Z,18.38
2023-05-10T11:49:05.523Z,18.35
2023-05-10T11:51:35.089Z,18.34
2023-05-10T11:54:02.011Z,18.35
2023-05-10T11:56:28.669Z,18.36
2023-05-10T11:58:57.609Z,18.30
2023-05-10T12:01:25.759Z,18.32
2023-05-10T12:03:53.832Z,18.34
2023-05-10T12:06:21.666Z,18.35
2023-05-10T12:08:49.196Z,18.34
2023-05-10T12:11:16.563Z,18.36
2023-05-10T12:13:47.467Z,18.39
2023-05-10T12:16:22.008Z,18.37
2023-05-10T12:18:52.841Z,18.36
2023-05-10T12:21:21.018Z,18.39
2023-05-10T12:23:49.700Z,18.38
2023-05-10T12:26:16.460Z,18.37
2023-05-10T12:28:43.259Z,18.32
2023-05-10T12:31:09.945Z,18.31
2023-05-10T12:33:43.376Z,18.32
2023-05-10T12:36:11.050Z,18.30
2023-05-10T12:38:40.040Z,18.29
2023-05-10T12:41:17.693Z,18.19
2023-05-10T12:43:46.284Z,18.23
2023-05-10T12:46:15.269Z,18.22
2023-05-10T12:48:43.447Z,18.22
2023-05-10T12:51:10.606Z,18.19
2023-05-10T12:53:37.697Z,18.20
2023-05-10T12:56:04.658Z,18.17
2023-05-10T12:58:36.094Z,18.16
2023-05-10T13:01:03.809Z,18.15
2023-05-10T13:03:30.619Z,18.17
2023-05-10T13:05:57.369Z,18.21
2023-05-10T13:08:24.106Z,18.21
2023-05-10T13:10:51.129Z,18.29
2023-05-10T13:13:18.712Z,18.33
2023-05-10T13:15:45.376Z,18.36
2023-05-10T13:18:12.142Z,18.37
2023-05-10T13:20:38.962Z,18.40
2023-05-10T13:23:05.730Z,18.39
2023-05-10T13:25:32.636Z,18.45
2023-05-10T13:27:59.275Z,18.50
2023-05-10T13:30:26.101Z,18.53
2023-05-10T13:32:52.837Z,18.53
2023-05-10T13:35:19.672Z,18.52
2023-05-10T13:37:46.455Z,18.51
2023-05-10T13:40:13.243Z,18.48
2023-05-10T13:42:40.567Z,18.49
2023-05-10T13:45:07.651Z,18.51
2023-05-10T13:47:34.393Z,18.50
2023-05-10T13:50:02.033Z,18.52
2023-05-10T13:52:29.485Z,18.50
2023-05-10T13:54:56.291Z,18.49
2023-05-10T13:57:23.957Z,18.52
2023-05-10T13:59:50.963Z,18.51
2023-05-10T14:02:17.653Z,18.54
2023-05-10T14:04:44.381Z,18.57
2023-05-10T14:07:11.074Z,18.60
2023-05-10T14:09:37.796Z,18.63
2023-05-10T14:12:04.636Z,18.66
2023-05-10T14:14:31.480Z,18.65
2023-05-10T14:16:58.199Z,18.66
2023-05-10T14:19:24.887Z,18.67
2023-05-10T14:21:52.948Z,18.65
2023-05-10T14:24:19.613Z,18.69
2023-05-10T14:26:46.403Z,18.71
2023-05-10T14:29:13.053Z,18.71
2023-05-10T14:31:39.768Z,18.65
2023-05-10T14:34:06.642Z,18.63
2023-05-10T14:36:33.637Z,18.63
2023-05-10T14:39:00.377Z,18.65
2023-05-10T14:41:27.037Z,18.69
2023-05-10T14:43:53.946Z,18.64
2023-05-10T14:46:20.804Z,18.65
2023-05-10T14:48:47.600Z,18.65
2023-05-10T14:51:14.489Z,18.64
2023-05-10T14:53:41.185Z,18.64
2023-05-10T14:56:07.976Z,18.66
2023-05-10T14:58:34.877Z,18.64
2023-05-10T15:01:01.913Z,18.59
2023-05-10T15:03:29.496Z,18.54
2023-05-10T15:05:58.615Z,18.54
2023-05-10T15:08:28.776Z,18.57
2023-05-10T15:10:56.900Z,18.58
2023-05-10T15:13:23.625Z,18.59
2023-05-10T15:15:50.361Z,18.59
2023-05-10T15:18:18.013Z,18.57
2023-05-10T15:20:44.826Z,18.56
2023-05-10T15:23:11.552Z,18.56
2023-05-10T15:25:38.422Z,18.60
2023-05-10T15:28:05.521Z,18.62
2023-05-10T15:30:32.229Z,18.61
2023-05-10T15:32:59.083Z,18.62
2023-05-10T15:35:27.278Z,18.62
2023-05-10T15:37:54.000Z,18.60
2023-05-10T15:40:20.746Z,18.62
2023-05-10T15:42:47.465Z,18.60
2023-05-10T15:48:36.968Z,18.58
2023-05-10T15:51:03.945Z,18.56
2023-05-10T15:53:30.699Z,18.59
2023-05-10T15:56:00.581Z,18.56
2023-05-10T15:58:38.699Z,18.57
2023-05-10T16:01:08.550Z,18.56
2023-05-10T16:03:37.374Z,18.56
2023-05-10T16:06:04.673Z,18.53
2023-05-10T16:08:33.589Z,18.51
2023-05-10T16:11:00.639Z,18.51
2023-05-10T16:13:27.611Z,18.52
2023-05-10T16:15:54.419Z,18.51
2023-05-10T16:18:21.443Z,18.50
2023-05-10T16:20:48.483Z,18.50
2023-05-10T16:23:15.276Z,18.47
2023-05-10T16:25:42.208Z,18.46
2023-05-10T16:28:08.903Z,18.44
2023-05-10T16:30:35.996Z,18.45
2023-05-10T16:33:02.844Z,18.44
2023-05-10T16:35:30.003Z,18.44
2023-05-10T16:37:57.097Z,18.46
2023-05-10T16:40:24.204Z,18.46
2023-05-10T16:42:50.874Z,18.42
2023-05-10T16:45:18.037Z,18.43
2023-05-10T16:47:45.226Z,18.43
2023-05-10T16:50:12.408Z,18.43
2023-05-10T16:52:39.399Z,18.42
2023-05-10T16:55:06.521Z,18.42
2023-05-10T16:57:33.309Z,18.41
2023-05-10T17:00:00.136Z,18.41
2023-05-10T17:02:27.171Z,18.36
2023-05-10T17:04:56.014Z,18.35
2023-05-10T17:07:25.395Z,18.33
2023-05-10T17:09:52.944Z,18.31
2023-05-10T17:12:22.123Z,18.29
2023-05-10T17:14:48.992Z,18.28
2023-05-10T17:17:15.754Z,18.26
2023-05-10T17:19:45.420Z,18.24
2023-05-10T17:22:14.962Z,18.21
2023-05-10T17:24:41.767Z,18.22
2023-05-10T17:27:08.644Z,18.18
2023-05-10T17:29:35.311Z,18.17
2023-05-10T17:32:02.341Z,18.16
2023-05-10T17:34:29.192Z,18.14
2023-05-10T17:36:55.878Z,18.12
2023-05-10T17:39:22.582Z,18.10
2023-05-10T17:41:49.313Z,18.09
2023-05-10T17:44:15.994Z,18.07
2023-05-10T17:46:43.370Z,18.06
2023-05-10T17:49:10.323Z,18.05
2023-05-10T17:51:37.100Z,18.02
2023-05-10T17:54:38.319Z,17.92
2023-05-10T17:57:09.875Z,17.94
2023-05-10T17:59:49.410Z,17.96
2023-05-10T18:02:16.721Z,17.93
2023-05-10T18:04:50.965Z,17.91
2023-05-10T18:07:23.949Z,17.89
2023-05-10T18:10:24.232Z,17.86
2023-05-10T18:13:02.605Z,17.81
2023-05-10T18:15:31.503Z,17.82
2023-05-10T18:18:04.328Z,17.72
2023-05-10T18:20:37.130Z,17.74
2023-05-10T18:23:06.397Z,17.70
2023-05-10T18:25:33.169Z,17.69
2023-05-10T18:28:00.049Z,17.69
2023-05-10T18:30:27.040Z,17.66
2023-05-10T18:32:53.967Z,17.64
2023-05-10T18:35:21.489Z,17.63
2023-05-10T18:37:49.036Z,17.63
2023-05-10T18:40:17.544Z,17.60
2023-05-10T18:42:46.479Z,17.59
2023-05-10T18:45:13.597Z,17.54
2023-05-10T18:47:40.616Z,17.51
2023-05-10T18:50:08.015Z,17.51
2023-05-10T18:52:35.942Z,17.45
2023-05-10T18:55:03.507Z,17.41
2023-05-10T18:57:30.322Z,17.38
2023-05-10T18:59:57.022Z,17.36
2023-05-10T19:02:25.360Z,17.30
2023-05-10T19:04:52.266Z,17.33
2023-05-10T19:07:19.240Z,17.35
2023-05-10T19:09:46.114Z,17.34
2023-05-10T19:12:12.941Z,17.36
2023-05-10T19:14:39.812Z,17.32
2023-05-10T19:17:06.872Z,17.29
2023-05-10T19:19:33.768Z,17.25
2023-05-10T19:22:00.729Z,17.21
2023-05-10T19:24:27.842Z,17.26
2023-05-10T19:26:56.305Z,17.23
2023-05-10T19:29:23.232Z,17.25
2023-05-10T19:31:50.138Z,17.19
2023-05-10T19:34:17.149Z,17.19
2023-05-10T19:36:44.045Z,17.15
2023-05-10T19:39:11.523Z,17.13
2023-05-10T19:41:38.492Z,17.11
2023-05-10T19:44:05.376Z,17.11
2023-05-10T19:46:32.410Z,17.13
2023-05-10T19:48:59.206Z,17.14
2023-05-10T19:51:26.033Z,17.13
2023-05-10T19:53:52.881Z,17.08
2023-05-10T19:56:19.750Z,17.02
2023-05-10T19:58:46.689Z,17.00
2023-05-10T20:01:13.859Z,16.96
2023-05-10T20:03:40.848Z,16.94
2023-05-10T20:06:07.763Z,16.89
2023-05-10T20:08:34.552Z,16.84
2023-05-10T20:11:03.818Z,16.82
2023-05-10T20:13:30.811Z,16.81
2023-05-10T20:15:58.609Z,16.80
2023-05-10T20:18:28.315Z,16.75
2023-05-10T20:20:57.621Z,16.75
2023-05-10T20:23:24.409Z,16.73
2023-05-10T20:25:51.310Z,16.74
2023-05-10T20:28:22.975Z,16.69
2023-05-10T20:30:54.160Z,16.67
2023-05-10T20:33:21.872Z,16.67
2023-05-10T20:35:50.318Z,16.68
2023-05-10T20:38:18.223Z,16.63
2023-05-10T20:40:45.617Z,16.65
2023-05-10T20:43:12.729Z,16.62
2023-05-10T20:45:39.568Z,16.60
2023-05-10T20:48:06.560Z,16.59
2023-05-10T20:50:33.457Z,16.55
2023-05-10T20:53:01.073Z,16.55
2023-05-10T20:55:28.522Z,16.53
2023-05-10T20:57:55.491Z,16.52
2023-05-10T21:00:22.455Z,16.49
2023-05-10T21:02:49.408Z,16.48
2023-05-10T21:05:17.612Z,16.50
2023-05-10T21:07:44.430Z,16.48
2023-05-10T21:10:11.639Z,16.44
2023-05-10T21:12:38.462Z,16.42
2023-05-10T21:15:05.789Z,16.43
2023-05-10T21:17:32.864Z,16.39
2023-05-10T21:19:59.748Z,16.39
2023-05-10T21:22:26.905Z,16.39
2023-05-10T21:24:53.717Z,16.36
2023-05-10T21:27:20.637Z,16.35
2023-05-10T21:29:47.365Z,16.33
2023-05-10T21:32:15.055Z,16.32
2023-05-10T21:34:42.103Z,16.33
2023-05-10T21:37:09.126Z,16.31
2023-05-10T21:39:36.260Z,16.28
2023-05-10T21:42:03.763Z,16.26
2023-05-10T21:44:31.654Z,16.26
2023-05-10T21:46:58.677Z,16.21
2023-05-10T21:49:25.816Z,16.22
2023-05-10T21:51:52.604Z,16.20
2023-05-10T21:54:19.395Z,16.16
2023-05-10T21:56:46.429Z,16.17
2023-05-10T21:59:13.432Z,16.16
2023-05-10T22:01:40.385Z,16.16
2023-05-10T22:04:07.263Z,16.15
2023-05-10T22:06:34.206Z,16.10
2023-05-10T22:09:01.059Z,16.12
2023-05-10T22:11:27.998Z,16.08
2023-05-10T22:13:54.888Z,16.10
2023-05-10T22:16:21.852Z,16.08
2023-05-10T22:18:48.804Z,16.05
2023-05-10T22:21:15.620Z,16.02
2023-05-10T22:23:42.503Z,16.02
2023-05-10T22:26:09.640Z,15.97
2023-05-10T22:28:36.585Z,15.97
2023-05-10T22:31:03.672Z,15.96
2023-05-10T22:33:30.481Z,15.97
2023-05-10T22:35:57.267Z,15.95
2023-05-10T22:38:24.131Z,15.93
2023-05-10T22:40:50.917Z,15.90
2023-05-10T22:43:18.243Z,15.94
2023-05-10T22:45:45.181Z,15.94
2023-05-10T22:48:12.058Z,15.92
2023-05-10T22:50:39.021Z,15.87
2023-05-10T22:53:06.678Z,15.88
2023-05-10T22:55:33.581Z,15.88
2023-05-10T22:58:01.135Z,15.90
2023-05-10T23:00:27.994Z,15.87
2023-05-10T23:02:54.936Z,15.84
2023-05-10T23:05:21.863Z,15.82
2023-05-10T23:07:53.102Z,15.80
2023-05-10T23:10:20.465Z,15.82
2023-05-10T23:12:48.092Z,15.76
2023-05-10T23:15:14.989Z,15.73
2023-05-10T23:17:41.881Z,15.75
2023-05-10T23:20:09.215Z,15.71
2023-05-10T23:22:36.241Z,15.73
2023-05-10T23:25:03.064Z,15.72
2023-05-10T23:27:30.634Z,15.70
2023-05-10T23:29:58.591Z,15.70
2023-05-10T23:32:25.426Z,15.70
2023-05-10T23:34:52.250Z,15.71
2023-05-10T23:37:19.077Z,15.71
2023-05-10T23:39:45.854Z,15.69
2023-05-10T23:42:12.715Z,15.67
2023-05-10T23:44:39.585Z,15.67
2023-05-10T23:47:07.227Z,15.67
2023-05-10T23:49:34.236Z,15.67
2023-05-10T23:52:01.296Z,15.64
2023-05-10T23:54:28.694Z,15.65
2023-05-10T23:56:55.453Z,15.63
2023-05-10T23:59:22.329Z,15.62
